Terminal Aerodrome Forecast
Issued by NWS

Home | Current Version | Previous Version | Text Only | Print | Product List | Glossary On
Versions: 1 2 3 4 5 6 7 8 9 10 11 12 13 14 15 16 17 18 19
571
FTUS44 KBMX 212329
TAFEET
TAF
KEET 212329Z 2200/2224 00000KT P6SM SCT250
      TEMPO 2209/2213 3SM BR SCT001
     FM221500 12003KT P6SM SCT100=

USA.gov is the U.S. government's official web portal to all federal, state and local government web resources and services.